MMML

General Rodolfo Sánchez Taboada International Airport

Mexicali, Mexico
TAF MMML 230436Z 2306/2406 13006KT P6SM SKC FM231800 16008KT P6SM SCT090 SCT220 BECMG 2403/2405 18004KT SKC
Issued Valid From Valid To
Apr-23 @ 04:36 UTC
(5 hours ago)
Apr-23 @ 06:00 UTC
(3 hours ago)
Apr-24 @ 06:00 UTC
(in 21 hours)
Apr-23 @ 06:00 to Apr-23 @ 18:00
TAF MMML 230436Z 2306/2406 13006KT P6SM SKC
Wind Visibility Clouds
130° at 6 knots Greater than 6 miles
  • Clear skies
From Apr-23 @ 18:00 to Apr-24 @ 03:00
FM231800 16008KT P6SM SCT090 SCT220
Wind Visibility Clouds
160° at 8 knots Greater than 6 miles
  • Scattered at 9,000' AGL
  • Scattered at 22,000' AGL
Becoming Apr-24 @ 03:00 to Apr-24 @ 06:00
BECMG 2403/2405 18004KT SKC
Wind Visibility Clouds
180° at 4 knots Greater than 6 miles
  • Clear skies
TAF MMML 230436Z 2306/2406 13006KT P6SM SKC FM231800 16008KT P6SM SCT090 SCT220 BECMG 2403/2405 18004KT SKC
Issued Apr-23 @ 04:36 UTC
(5 hours ago)
Valid From Apr-23 @ 06:00 UTC
(3 hours ago)
Valid To Apr-24 @ 06:00 UTC
(in 21 hours)
Apr-23 @ 06:00 - Apr-23 @ 18:00
Wind Visibility
130° at 6 knots Greater than 6 miles
Clouds
  • Clear skies
From Apr-23 @ 18:00 - Apr-24 @ 03:00
Wind Visibility
160° at 8 knots Greater than 6 miles
Clouds
  • Scattered at 9,000' AGL
  • Scattered at 22,000' AGL
Becoming Apr-24 @ 03:00 - Apr-24 @ 06:00
Wind Visibility
180° at 4 knots Greater than 6 miles
Clouds
  • Clear skies